sensor_id;sensor_type;location;lat;lon;timestamp;P1;durP1;ratioP1;P2;durP2;ratioP2
23555;SDS011;11956;53.184;8.578;2023-04-03T00:01:58;6.47;;;1.33;;
23555;SDS011;11956;53.184;8.578;2023-04-03T00:04:58;6.68;;;1.67;;
23555;SDS011;11956;53.184;8.578;2023-04-03T00:07:59;7.13;;;2.00;;
23555;SDS011;11956;53.184;8.578;2023-04-03T00:11:02;5.28;;;1.42;;
23555;SDS011;11956;53.184;8.578;2023-04-03T00:14:04;8.23;;;1.70;;
23555;SDS011;11956;53.184;8.578;2023-04-03T00:17:05;8.30;;;1.73;;
23555;SDS011;11956;53.184;8.578;2023-04-03T00:20:06;5.82;;;1.70;;
23555;SDS011;11956;53.184;8.578;2023-04-03T00:23:08;5.82;;;1.60;;
23555;SDS011;11956;53.184;8.578;2023-04-03T00:26:09;6.18;;;1.75;;
23555;SDS011;11956;53.184;8.578;2023-04-03T00:29:13;4.47;;;1.58;;
23555;SDS011;11956;53.184;8.578;2023-04-03T00:32:14;8.57;;;1.65;;
23555;SDS011;11956;53.184;8.578;2023-04-03T00:35:16;5.50;;;1.38;;
23555;SDS011;11956;53.184;8.578;2023-04-03T00:38:18;8.60;;;1.60;;
23555;SDS011;11956;53.184;8.578;2023-04-03T00:41:19;4.88;;;1.60;;
23555;SDS011;11956;53.184;8.578;2023-04-03T00:47:28;7.22;;;1.98;;
23555;SDS011;11956;53.184;8.578;2023-04-03T00:50:30;6.22;;;1.45;;
23555;SDS011;11956;53.184;8.578;2023-04-03T00:53:42;7.28;;;2.08;;
23555;SDS011;11956;53.184;8.578;2023-04-03T00:56:51;8.70;;;1.55;;
23555;SDS011;11956;53.184;8.578;2023-04-03T00:59:57;6.03;;;1.88;;
23555;SDS011;11956;53.184;8.578;2023-04-03T01:03:04;8.02;;;1.70;;
23555;SDS011;11956;53.184;8.578;2023-04-03T01:06:05;6.10;;;1.52;;
23555;SDS011;11956;53.184;8.578;2023-04-03T01:09:06;8.80;;;2.20;;
23555;SDS011;11956;53.184;8.578;2023-04-03T01:15:23;6.03;;;1.80;;
23555;SDS011;11956;53.184;8.578;2023-04-03T01:18:26;7.88;;;2.13;;
23555;SDS011;11956;53.184;8.578;2023-04-03T01:25:14;7.55;;;1.92;;
23555;SDS011;11956;53.184;8.578;2023-04-03T01:28:18;8.95;;;1.65;;
23555;SDS011;11956;53.184;8.578;2023-04-03T01:31:26;9.43;;;1.80;;
23555;SDS011;11956;53.184;8.578;2023-04-03T01:34:50;6.82;;;1.55;;
23555;SDS011;11956;53.184;8.578;2023-04-03T01:37:51;6.22;;;1.80;;
23555;SDS011;11956;53.184;8.578;2023-04-03T01:40:52;7.82;;;2.15;;
23555;SDS011;11956;53.184;8.578;2023-04-03T01:43:53;3.22;;;1.60;;
23555;SDS011;11956;53.184;8.578;2023-04-03T01:46:53;10.00;;;2.33;;
23555;SDS011;11956;53.184;8.578;2023-04-03T01:49:56;8.60;;;2.45;;
23555;SDS011;11956;53.184;8.578;2023-04-03T01:52:58;4.30;;;1.55;;
23555;SDS011;11956;53.184;8.578;2023-04-03T01:55:58;7.03;;;1.65;;
23555;SDS011;11956;53.184;8.578;2023-04-03T01:58:59;6.40;;;1.88;;
23555;SDS011;11956;53.184;8.578;2023-04-03T02:02:00;7.57;;;2.00;;
23555;SDS011;11956;53.184;8.578;2023-04-03T02:05:01;7.75;;;2.05;;
23555;SDS011;11956;53.184;8.578;2023-04-03T02:08:02;7.03;;;2.00;;
23555;SDS011;11956;53.184;8.578;2023-04-03T02:11:03;8.13;;;2.17;;
23555;SDS011;11956;53.184;8.578;2023-04-03T02:14:05;7.05;;;2.00;;
23555;SDS011;11956;53.184;8.578;2023-04-03T02:17:06;8.45;;;2.15;;
23555;SDS011;11956;53.184;8.578;2023-04-03T02:20:08;7.38;;;2.15;;
23555;SDS011;11956;53.184;8.578;2023-04-03T02:23:10;8.55;;;1.77;;
23555;SDS011;11956;53.184;8.578;2023-04-03T02:26:12;7.40;;;2.05;;
23555;SDS011;11956;53.184;8.578;2023-04-03T02:29:15;5.53;;;1.80;;
23555;SDS011;11956;53.184;8.578;2023-04-03T02:32:16;7.82;;;2.03;;
23555;SDS011;11956;53.184;8.578;2023-04-03T02:35:18;5.70;;;2.00;;
23555;SDS011;11956;53.184;8.578;2023-04-03T02:38:19;9.02;;;1.88;;
23555;SDS011;11956;53.184;8.578;2023-04-03T02:41:20;10.65;;;2.28;;
23555;SDS011;11956;53.184;8.578;2023-04-03T02:44:23;8.82;;;2.40;;
23555;SDS011;11956;53.184;8.578;2023-04-03T02:47:24;6.88;;;2.08;;
23555;SDS011;11956;53.184;8.578;2023-04-03T02:50:25;8.63;;;2.10;;
23555;SDS011;11956;53.184;8.578;2023-04-03T02:53:26;11.45;;;2.50;;
23555;SDS011;11956;53.184;8.578;2023-04-03T02:56:27;8.77;;;2.13;;
23555;SDS011;11956;53.184;8.578;2023-04-03T02:59:28;7.30;;;2.28;;
23555;SDS011;11956;53.184;8.578;2023-04-03T03:02:30;6.90;;;2.28;;
23555;SDS011;11956;53.184;8.578;2023-04-03T03:05:31;8.68;;;2.47;;
23555;SDS011;11956;53.184;8.578;2023-04-03T03:08:32;9.75;;;2.20;;
23555;SDS011;11956;53.184;8.578;2023-04-03T03:11:34;9.02;;;2.08;;
23555;SDS011;11956;53.184;8.578;2023-04-03T03:14:36;7.93;;;2.28;;
23555;SDS011;11956;53.184;8.578;2023-04-03T03:17:37;7.20;;;2.03;;
23555;SDS011;11956;53.184;8.578;2023-04-03T03:20:38;7.35;;;1.85;;
23555;SDS011;11956;53.184;8.578;2023-04-03T03:23:39;7.65;;;2.38;;
23555;SDS011;11956;53.184;8.578;2023-04-03T03:26:40;10.50;;;2.58;;
23555;SDS011;11956;53.184;8.578;2023-04-03T03:29:41;7.47;;;2.28;;
23555;SDS011;11956;53.184;8.578;2023-04-03T03:32:43;11.75;;;2.80;;
23555;SDS011;11956;53.184;8.578;2023-04-03T03:35:44;7.80;;;2.60;;
23555;SDS011;11956;53.184;8.578;2023-04-03T03:38:44;8.15;;;2.30;;
23555;SDS011;11956;53.184;8.578;2023-04-03T03:41:45;4.68;;;2.20;;
23555;SDS011;11956;53.184;8.578;2023-04-03T03:44:48;13.20;;;2.83;;
23555;SDS011;11956;53.184;8.578;2023-04-03T03:47:49;6.38;;;2.63;;
23555;SDS011;11956;53.184;8.578;2023-04-03T03:50:50;12.48;;;2.72;;
23555;SDS011;11956;53.184;8.578;2023-04-03T03:53:53;8.00;;;2.60;;
23555;SDS011;11956;53.184;8.578;2023-04-03T03:56:54;9.48;;;2.88;;
23555;SDS011;11956;53.184;8.578;2023-04-03T03:59:57;5.40;;;2.53;;
23555;SDS011;11956;53.184;8.578;2023-04-03T04:02:59;11.45;;;3.30;;
23555;SDS011;11956;53.184;8.578;2023-04-03T04:06:01;6.40;;;2.60;;
23555;SDS011;11956;53.184;8.578;2023-04-03T04:09:03;9.60;;;2.78;;
23555;SDS011;11956;53.184;8.578;2023-04-03T04:12:04;8.60;;;2.75;;
23555;SDS011;11956;53.184;8.578;2023-04-03T04:15:07;11.27;;;3.65;;
23555;SDS011;11956;53.184;8.578;2023-04-03T04:18:09;10.75;;;3.15;;
23555;SDS011;11956;53.184;8.578;2023-04-03T04:21:11;9.73;;;3.38;;
23555;SDS011;11956;53.184;8.578;2023-04-03T04:24:13;7.13;;;2.65;;
23555;SDS011;11956;53.184;8.578;2023-04-03T04:27:14;8.98;;;2.97;;
23555;SDS011;11956;53.184;8.578;2023-04-03T04:30:16;10.95;;;2.95;;
23555;SDS011;11956;53.184;8.578;2023-04-03T04:33:19;7.72;;;2.53;;
23555;SDS011;11956;53.184;8.578;2023-04-03T04:36:21;9.40;;;3.40;;
23555;SDS011;11956;53.184;8.578;2023-04-03T04:39:22;9.15;;;2.85;;
23555;SDS011;11956;53.184;8.578;2023-04-03T04:42:24;9.45;;;3.13;;
23555;SDS011;11956;53.184;8.578;2023-04-03T04:45:26;9.60;;;2.75;;
23555;SDS011;11956;53.184;8.578;2023-04-03T04:48:27;6.63;;;2.80;;
23555;SDS011;11956;53.184;8.578;2023-04-03T04:51:28;8.48;;;2.75;;
23555;SDS011;11956;53.184;8.578;2023-04-03T04:54:30;8.52;;;2.78;;
23555;SDS011;11956;53.184;8.578;2023-04-03T04:57:32;11.80;;;3.33;;
23555;SDS011;11956;53.184;8.578;2023-04-03T05:00:34;10.50;;;3.03;;
23555;SDS011;11956;53.184;8.578;2023-04-03T05:03:35;8.10;;;2.70;;
23555;SDS011;11956;53.184;8.578;2023-04-03T05:06:37;9.57;;;2.88;;
23555;SDS011;11956;53.184;8.578;2023-04-03T05:09:42;12.80;;;3.70;;
23555;SDS011;11956;53.184;8.578;2023-04-03T05:12:44;8.65;;;3.15;;
23555;SDS011;11956;53.184;8.578;2023-04-03T05:15:46;7.28;;;3.25;;
23555;SDS011;11956;53.184;8.578;2023-04-03T05:18:47;8.45;;;3.63;;
23555;SDS011;11956;53.184;8.578;2023-04-03T05:21:52;10.75;;;3.80;;
23555;SDS011;11956;53.184;8.578;2023-04-03T05:24:54;12.75;;;4.38;;
23555;SDS011;11956;53.184;8.578;2023-04-03T05:27:57;10.00;;;4.50;;
23555;SDS011;11956;53.184;8.578;2023-04-03T05:30:58;10.60;;;4.45;;
23555;SDS011;11956;53.184;8.578;2023-04-03T05:34:06;12.07;;;4.22;;
23555;SDS011;11956;53.184;8.578;2023-04-03T05:37:10;10.10;;;4.40;;
23555;SDS011;11956;53.184;8.578;2023-04-03T05:40:18;10.80;;;3.80;;
23555;SDS011;11956;53.184;8.578;2023-04-03T05:43:23;11.57;;;4.03;;
23555;SDS011;11956;53.184;8.578;2023-04-03T05:46:25;6.93;;;3.22;;
23555;SDS011;11956;53.184;8.578;2023-04-03T05:49:29;9.73;;;3.10;;
23555;SDS011;11956;53.184;8.578;2023-04-03T05:52:41;8.63;;;3.45;;
23555;SDS011;11956;53.184;8.578;2023-04-03T05:55:46;7.80;;;3.08;;
23555;SDS011;11956;53.184;8.578;2023-04-03T05:58:47;8.75;;;2.75;;
23555;SDS011;11956;53.184;8.578;2023-04-03T06:01:48;5.82;;;2.50;;
23555;SDS011;11956;53.184;8.578;2023-04-03T06:04:49;7.63;;;2.45;;
23555;SDS011;11956;53.184;8.578;2023-04-03T06:07:51;5.95;;;2.45;;
23555;SDS011;11956;53.184;8.578;2023-04-03T06:10:52;6.80;;;2.20;;
23555;SDS011;11956;53.184;8.578;2023-04-03T06:13:53;5.60;;;2.35;;
23555;SDS011;11956;53.184;8.578;2023-04-03T06:16:54;5.95;;;2.17;;
23555;SDS011;11956;53.184;8.578;2023-04-03T06:19:54;6.30;;;2.10;;
23555;SDS011;11956;53.184;8.578;2023-04-03T06:22:56;6.25;;;2.20;;
23555;SDS011;11956;53.184;8.578;2023-04-03T06:25:57;5.82;;;2.28;;
23555;SDS011;11956;53.184;8.578;2023-04-03T06:28:58;4.75;;;2.00;;
23555;SDS011;11956;53.184;8.578;2023-04-03T06:31:59;5.07;;;1.65;;
23555;SDS011;11956;53.184;8.578;2023-04-03T06:35:00;4.57;;;1.52;;
23555;SDS011;11956;53.184;8.578;2023-04-03T06:38:01;5.53;;;2.20;;
23555;SDS011;11956;53.184;8.578;2023-04-03T06:41:04;4.20;;;1.50;;
23555;SDS011;11956;53.184;8.578;2023-04-03T06:44:05;6.03;;;1.80;;
23555;SDS011;11956;53.184;8.578;2023-04-03T06:47:06;6.22;;;1.80;;
23555;SDS011;11956;53.184;8.578;2023-04-03T06:50:12;4.15;;;1.60;;
23555;SDS011;11956;53.184;8.578;2023-04-03T06:53:14;5.45;;;1.40;;
23555;SDS011;11956;53.184;8.578;2023-04-03T06:56:15;5.22;;;1.80;;
23555;SDS011;11956;53.184;8.578;2023-04-03T06:59:17;5.78;;;1.70;;
23555;SDS011;11956;53.184;8.578;2023-04-03T07:02:18;5.25;;;1.55;;
23555;SDS011;11956;53.184;8.578;2023-04-03T07:05:20;3.75;;;1.52;;
23555;SDS011;11956;53.184;8.578;2023-04-03T07:08:21;5.45;;;1.70;;
23555;SDS011;11956;53.184;8.578;2023-04-03T07:11:23;2.47;;;1.17;;
23555;SDS011;11956;53.184;8.578;2023-04-03T07:14:24;3.80;;;1.52;;
23555;SDS011;11956;53.184;8.578;2023-04-03T07:17:25;4.85;;;1.15;;
23555;SDS011;11956;53.184;8.578;2023-04-03T07:20:27;4.45;;;1.27;;
23555;SDS011;11956;53.184;8.578;2023-04-03T07:23:27;4.43;;;1.20;;
23555;SDS011;11956;53.184;8.578;2023-04-03T07:26:28;4.97;;;1.33;;
23555;SDS011;11956;53.184;8.578;2023-04-03T07:29:30;2.10;;;1.00;;
23555;SDS011;11956;53.184;8.578;2023-04-03T07:32:31;3.25;;;0.90;;
23555;SDS011;11956;53.184;8.578;2023-04-03T07:35:32;3.88;;;1.40;;
23555;SDS011;11956;53.184;8.578;2023-04-03T07:38:33;3.30;;;1.30;;
23555;SDS011;11956;53.184;8.578;2023-04-03T07:41:35;3.93;;;1.10;;
23555;SDS011;11956;53.184;8.578;2023-04-03T07:44:36;2.75;;;1.00;;
23555;SDS011;11956;53.184;8.578;2023-04-03T07:47:37;3.42;;;1.17;;
23555;SDS011;11956;53.184;8.578;2023-04-03T07:50:39;2.83;;;1.00;;
23555;SDS011;11956;53.184;8.578;2023-04-03T07:53:41;2.63;;;0.90;;
23555;SDS011;11956;53.184;8.578;2023-04-03T07:56:41;3.47;;;1.00;;
23555;SDS011;11956;53.184;8.578;2023-04-03T07:59:43;2.35;;;0.80;;
23555;SDS011;11956;53.184;8.578;2023-04-03T08:02:44;3.40;;;1.10;;
23555;SDS011;11956;53.184;8.578;2023-04-03T08:05:50;2.80;;;0.90;;
23555;SDS011;11956;53.184;8.578;2023-04-03T08:08:51;2.58;;;0.95;;
23555;SDS011;11956;53.184;8.578;2023-04-03T08:11:52;5.25;;;1.00;;
23555;SDS011;11956;53.184;8.578;2023-04-03T08:14:53;2.95;;;1.20;;
23555;SDS011;11956;53.184;8.578;2023-04-03T08:17:54;4.45;;;1.20;;
23555;SDS011;11956;53.184;8.578;2023-04-03T08:20:55;4.38;;;1.20;;
23555;SDS011;11956;53.184;8.578;2023-04-03T08:23:56;2.92;;;1.23;;
23555;SDS011;11956;53.184;8.578;2023-04-03T08:26:57;2.42;;;1.00;;
23555;SDS011;11956;53.184;8.578;2023-04-03T08:29:58;2.97;;;1.42;;
23555;SDS011;11956;53.184;8.578;2023-04-03T08:33:02;4.18;;;1.20;;
23555;SDS011;11956;53.184;8.578;2023-04-03T08:36:04;3.65;;;0.95;;
23555;SDS011;11956;53.184;8.578;2023-04-03T08:39:18;5.68;;;1.20;;
23555;SDS011;11956;53.184;8.578;2023-04-03T08:42:29;3.17;;;0.95;;
23555;SDS011;11956;53.184;8.578;2023-04-03T08:45:50;2.22;;;1.20;;
23555;SDS011;11956;53.184;8.578;2023-04-03T08:48:54;4.80;;;1.25;;
23555;SDS011;11956;53.184;8.578;2023-04-03T08:51:57;2.90;;;1.17;;
23555;SDS011;11956;53.184;8.578;2023-04-03T08:55:13;2.88;;;1.15;;
23555;SDS011;11956;53.184;8.578;2023-04-03T08:58:21;4.07;;;1.00;;
23555;SDS011;11956;53.184;8.578;2023-04-03T09:01:30;2.55;;;0.80;;
23555;SDS011;11956;53.184;8.578;2023-04-03T09:04:37;2.58;;;0.82;;
23555;SDS011;11956;53.184;8.578;2023-04-03T09:07:57;2.13;;;0.95;;
23555;SDS011;11956;53.184;8.578;2023-04-03T09:11:19;2.38;;;0.60;;
23555;SDS011;11956;53.184;8.578;2023-04-03T09:18:28;3.75;;;0.60;;
23555;SDS011;11956;53.184;8.578;2023-04-03T09:21:35;3.40;;;0.70;;
23555;SDS011;11956;53.184;8.578;2023-04-03T09:24:43;1.60;;;0.60;;
23555;SDS011;11956;53.184;8.578;2023-04-03T09:27:49;2.92;;;0.60;;
23555;SDS011;11956;53.184;8.578;2023-04-03T09:30:51;1.13;;;0.70;;
23555;SDS011;11956;53.184;8.578;2023-04-03T09:34:26;1.65;;;0.60;;
23555;SDS011;11956;53.184;8.578;2023-04-03T09:37:38;2.58;;;0.80;;
23555;SDS011;11956;53.184;8.578;2023-04-03T09:40:45;2.00;;;0.60;;
23555;SDS011;11956;53.184;8.578;2023-04-03T09:43:52;2.47;;;0.77;;
23555;SDS011;11956;53.184;8.578;2023-04-03T09:46:54;1.95;;;0.63;;
23555;SDS011;11956;53.184;8.578;2023-04-03T09:53:34;1.80;;;0.60;;
23555;SDS011;11956;53.184;8.578;2023-04-03T09:56:40;2.15;;;0.68;;
23555;SDS011;11956;53.184;8.578;2023-04-03T09:59:57;2.08;;;0.65;;
23555;SDS011;11956;53.184;8.578;2023-04-03T10:03:01;3.00;;;0.75;;
23555;SDS011;11956;53.184;8.578;2023-04-03T10:06:03;2.15;;;0.77;;
23555;SDS011;11956;53.184;8.578;2023-04-03T10:12:30;1.98;;;0.70;;
23555;SDS011;11956;53.184;8.578;2023-04-03T10:15:33;2.13;;;0.50;;
23555;SDS011;11956;53.184;8.578;2023-04-03T10:18:44;1.42;;;0.60;;
23555;SDS011;11956;53.184;8.578;2023-04-03T10:21:58;1.10;;;0.60;;
23555;SDS011;11956;53.184;8.578;2023-04-03T10:25:26;1.98;;;0.80;;
23555;SDS011;11956;53.184;8.578;2023-04-03T10:29:16;1.92;;;0.70;;
23555;SDS011;11956;53.184;8.578;2023-04-03T10:32:40;2.00;;;0.47;;
23555;SDS011;11956;53.184;8.578;2023-04-03T10:35:44;2.30;;;0.47;;
23555;SDS011;11956;53.184;8.578;2023-04-03T10:43:14;2.50;;;0.80;;
23555;SDS011;11956;53.184;8.578;2023-04-03T10:46:43;3.25;;;0.95;;
23555;SDS011;11956;53.184;8.578;2023-04-03T10:53:34;4.05;;;0.80;;
23555;SDS011;11956;53.184;8.578;2023-04-03T10:57:03;3.08;;;0.70;;
23555;SDS011;11956;53.184;8.578;2023-04-03T11:00:15;2.97;;;0.93;;
23555;SDS011;11956;53.184;8.578;2023-04-03T11:03:27;2.00;;;0.70;;
23555;SDS011;11956;53.184;8.578;2023-04-03T11:06:39;2.40;;;0.70;;
23555;SDS011;11956;53.184;8.578;2023-04-03T11:09:51;2.80;;;0.77;;
23555;SDS011;11956;53.184;8.578;2023-04-03T11:13:40;3.22;;;0.88;;
23555;SDS011;11956;53.184;8.578;2023-04-03T11:16:27;1.63;;;0.80;;
23555;SDS011;11956;53.184;8.578;2023-04-03T11:19:34;2.67;;;0.73;;
23555;SDS011;11956;53.184;8.578;2023-04-03T11:26:27;1.73;;;0.65;;
23555;SDS011;11956;53.184;8.578;2023-04-03T11:29:34;1.23;;;0.60;;
23555;SDS011;11956;53.184;8.578;2023-04-03T11:32:44;1.98;;;0.40;;
23555;SDS011;11956;53.184;8.578;2023-04-03T11:36:04;3.75;;;0.80;;
23555;SDS011;11956;53.184;8.578;2023-04-03T11:39:31;2.47;;;0.80;;
23555;SDS011;11956;53.184;8.578;2023-04-03T11:42:37;1.60;;;0.65;;
23555;SDS011;11956;53.184;8.578;2023-04-03T11:46:01;1.98;;;0.70;;
23555;SDS011;11956;53.184;8.578;2023-04-03T11:49:03;1.77;;;0.57;;
23555;SDS011;11956;53.184;8.578;2023-04-03T11:52:07;3.38;;;0.60;;
23555;SDS011;11956;53.184;8.578;2023-04-03T11:58:22;2.65;;;0.70;;
23555;SDS011;11956;53.184;8.578;2023-04-03T12:01:42;2.63;;;0.80;;
23555;SDS011;11956;53.184;8.578;2023-04-03T12:11:34;4.55;;;3.38;;
23555;SDS011;11956;53.184;8.578;2023-04-03T12:14:36;2.88;;;0.75;;
23555;SDS011;11956;53.184;8.578;2023-04-03T12:17:37;3.22;;;0.77;;
23555;SDS011;11956;53.184;8.578;2023-04-03T12:27:26;1.95;;;0.88;;
23555;SDS011;11956;53.184;8.578;2023-04-03T12:30:34;4.00;;;0.90;;
23555;SDS011;11956;53.184;8.578;2023-04-03T12:47:34;2.78;;;0.70;;
23555;SDS011;11956;53.184;8.578;2023-04-03T12:50:38;2.97;;;0.80;;
23555;SDS011;11956;53.184;8.578;2023-04-03T12:53:42;2.70;;;0.93;;
23555;SDS011;11956;53.184;8.578;2023-04-03T12:56:45;3.20;;;1.02;;
23555;SDS011;11956;53.184;8.578;2023-04-03T12:59:46;2.08;;;0.80;;
23555;SDS011;11956;53.184;8.578;2023-04-03T13:02:48;2.22;;;0.80;;
23555;SDS011;11956;53.184;8.578;2023-04-03T13:05:49;2.53;;;0.70;;
23555;SDS011;11956;53.184;8.578;2023-04-03T13:08:55;2.83;;;1.10;;
23555;SDS011;11956;53.184;8.578;2023-04-03T13:12:09;2.72;;;0.75;;
23555;SDS011;11956;53.184;8.578;2023-04-03T13:18:30;3.33;;;0.90;;
23555;SDS011;11956;53.184;8.578;2023-04-03T13:21:34;3.35;;;0.90;;
23555;SDS011;11956;53.184;8.578;2023-04-03T13:24:36;1.13;;;0.80;;
23555;SDS011;11956;53.184;8.578;2023-04-03T13:27:39;1.38;;;0.90;;
23555;SDS011;11956;53.184;8.578;2023-04-03T13:31:05;3.22;;;0.77;;
23555;SDS011;11956;53.184;8.578;2023-04-03T13:34:27;2.90;;;0.93;;
23555;SDS011;11956;53.184;8.578;2023-04-03T13:37:52;1.63;;;0.70;;
23555;SDS011;11956;53.184;8.578;2023-04-03T13:41:04;2.08;;;0.93;;
23555;SDS011;11956;53.184;8.578;2023-04-03T13:44:32;2.10;;;0.85;;
23555;SDS011;11956;53.184;8.578;2023-04-03T13:47:39;2.92;;;0.90;;
23555;SDS011;11956;53.184;8.578;2023-04-03T13:54:18;2.58;;;0.88;;
23555;SDS011;11956;53.184;8.578;2023-04-03T13:57:48;3.58;;;0.82;;
23555;SDS011;11956;53.184;8.578;2023-04-03T14:00:53;3.03;;;1.00;;
23555;SDS011;11956;53.184;8.578;2023-04-03T14:04:14;3.17;;;0.80;;
23555;SDS011;11956;53.184;8.578;2023-04-03T14:07:22;1.70;;;0.68;;
23555;SDS011;11956;53.184;8.578;2023-04-03T14:10:24;3.00;;;1.10;;
23555;SDS011;11956;53.184;8.578;2023-04-03T14:13:25;2.58;;;0.60;;
23555;SDS011;11956;53.184;8.578;2023-04-03T14:16:27;2.22;;;0.82;;
23555;SDS011;11956;53.184;8.578;2023-04-03T14:19:33;2.78;;;0.90;;
23555;SDS011;11956;53.184;8.578;2023-04-03T14:22:35;2.93;;;0.90;;
23555;SDS011;11956;53.184;8.578;2023-04-03T14:25:37;2.13;;;0.70;;
23555;SDS011;11956;53.184;8.578;2023-04-03T14:28:39;6.82;;;1.10;;
23555;SDS011;11956;53.184;8.578;2023-04-03T14:31:41;3.13;;;1.13;;
23555;SDS011;11956;53.184;8.578;2023-04-03T14:34:45;1.52;;;0.77;;
23555;SDS011;11956;53.184;8.578;2023-04-03T14:37:48;2.15;;;0.90;;
23555;SDS011;11956;53.184;8.578;2023-04-03T14:43:53;4.50;;;1.30;;
23555;SDS011;11956;53.184;8.578;2023-04-03T14:46:54;3.20;;;0.95;;
23555;SDS011;11956;53.184;8.578;2023-04-03T14:49:56;3.03;;;0.90;;
23555;SDS011;11956;53.184;8.578;2023-04-03T14:52:59;2.58;;;0.93;;
23555;SDS011;11956;53.184;8.578;2023-04-03T14:56:00;2.72;;;1.10;;
23555;SDS011;11956;53.184;8.578;2023-04-03T14:59:01;2.75;;;0.90;;
23555;SDS011;11956;53.184;8.578;2023-04-03T15:02:04;3.17;;;0.98;;
23555;SDS011;11956;53.184;8.578;2023-04-03T15:05:25;2.90;;;1.15;;
23555;SDS011;11956;53.184;8.578;2023-04-03T15:08:26;2.30;;;0.85;;
23555;SDS011;11956;53.184;8.578;2023-04-03T15:11:31;2.55;;;1.08;;
23555;SDS011;11956;53.184;8.578;2023-04-03T15:14:31;2.03;;;0.88;;
23555;SDS011;11956;53.184;8.578;2023-04-03T15:17:32;3.47;;;0.77;;
23555;SDS011;11956;53.184;8.578;2023-04-03T15:20:34;4.63;;;1.40;;
23555;SDS011;11956;53.184;8.578;2023-04-03T15:23:35;2.42;;;0.90;;
23555;SDS011;11956;53.184;8.578;2023-04-03T15:26:36;2.75;;;0.85;;
23555;SDS011;11956;53.184;8.578;2023-04-03T15:29:38;3.53;;;1.15;;
23555;SDS011;11956;53.184;8.578;2023-04-03T15:32:41;4.18;;;1.30;;
23555;SDS011;11956;53.184;8.578;2023-04-03T15:35:42;4.55;;;1.40;;
23555;SDS011;11956;53.184;8.578;2023-04-03T15:38:43;3.72;;;1.48;;
23555;SDS011;11956;53.184;8.578;2023-04-03T15:41:44;3.15;;;0.85;;
23555;SDS011;11956;53.184;8.578;2023-04-03T15:44:45;4.35;;;1.40;;
23555;SDS011;11956;53.184;8.578;2023-04-03T15:47:46;3.63;;;1.30;;
23555;SDS011;11956;53.184;8.578;2023-04-03T15:50:47;3.47;;;1.00;;
23555;SDS011;11956;53.184;8.578;2023-04-03T15:53:48;2.60;;;1.10;;
23555;SDS011;11956;53.184;8.578;2023-04-03T15:56:48;3.35;;;1.00;;
23555;SDS011;11956;53.184;8.578;2023-04-03T15:59:49;2.35;;;1.23;;
23555;SDS011;11956;53.184;8.578;2023-04-03T16:02:52;4.68;;;1.38;;
23555;SDS011;11956;53.184;8.578;2023-04-03T16:05:57;3.17;;;1.00;;
23555;SDS011;11956;53.184;8.578;2023-04-03T16:08:58;3.15;;;1.13;;
23555;SDS011;11956;53.184;8.578;2023-04-03T16:11:59;5.97;;;1.30;;
23555;SDS011;11956;53.184;8.578;2023-04-03T16:15:00;5.05;;;1.02;;
23555;SDS011;11956;53.184;8.578;2023-04-03T16:18:02;3.60;;;1.02;;
23555;SDS011;11956;53.184;8.578;2023-04-03T16:21:05;2.80;;;1.43;;
23555;SDS011;11956;53.184;8.578;2023-04-03T16:24:08;3.00;;;1.25;;
23555;SDS011;11956;53.184;8.578;2023-04-03T16:27:09;2.10;;;1.00;;
23555;SDS011;11956;53.184;8.578;2023-04-03T16:30:10;2.80;;;1.15;;
23555;SDS011;11956;53.184;8.578;2023-04-03T16:33:12;2.10;;;1.10;;
23555;SDS011;11956;53.184;8.578;2023-04-03T16:36:13;4.20;;;0.98;;
23555;SDS011;11956;53.184;8.578;2023-04-03T16:39:14;4.40;;;1.15;;
23555;SDS011;11956;53.184;8.578;2023-04-03T16:42:15;4.40;;;1.00;;
23555;SDS011;11956;53.184;8.578;2023-04-03T16:45:16;3.65;;;1.20;;
23555;SDS011;11956;53.184;8.578;2023-04-03T16:48:17;4.13;;;1.02;;
23555;SDS011;11956;53.184;8.578;2023-04-03T16:51:18;3.75;;;1.10;;
23555;SDS011;11956;53.184;8.578;2023-04-03T16:54:19;4.57;;;1.42;;
23555;SDS011;11956;53.184;8.578;2023-04-03T16:57:20;5.28;;;2.50;;
23555;SDS011;11956;53.184;8.578;2023-04-03T17:00:22;2.85;;;1.08;;
23555;SDS011;11956;53.184;8.578;2023-04-03T17:03:23;3.30;;;1.30;;
23555;SDS011;11956;53.184;8.578;2023-04-03T17:06:25;3.58;;;1.23;;
23555;SDS011;11956;53.184;8.578;2023-04-03T17:09:26;3.78;;;1.20;;
23555;SDS011;11956;53.184;8.578;2023-04-03T17:12:27;5.38;;;1.30;;
23555;SDS011;11956;53.184;8.578;2023-04-03T17:15:28;3.65;;;1.50;;
23555;SDS011;11956;53.184;8.578;2023-04-03T17:18:29;3.35;;;1.13;;
23555;SDS011;11956;53.184;8.578;2023-04-03T17:21:30;4.40;;;1.17;;
23555;SDS011;11956;53.184;8.578;2023-04-03T17:24:33;4.17;;;1.27;;
23555;SDS011;11956;53.184;8.578;2023-04-03T17:27:34;1.75;;;0.98;;
23555;SDS011;11956;53.184;8.578;2023-04-03T17:30:35;4.50;;;1.33;;
23555;SDS011;11956;53.184;8.578;2023-04-03T17:33:36;2.15;;;1.02;;
23555;SDS011;11956;53.184;8.578;2023-04-03T17:36:38;3.95;;;1.23;;
23555;SDS011;11956;53.184;8.578;2023-04-03T17:39:40;3.10;;;1.40;;
23555;SDS011;11956;53.184;8.578;2023-04-03T17:42:41;2.80;;;1.20;;
23555;SDS011;11956;53.184;8.578;2023-04-03T17:45:41;3.15;;;1.08;;
23555;SDS011;11956;53.184;8.578;2023-04-03T17:48:42;4.05;;;1.00;;
23555;SDS011;11956;53.184;8.578;2023-04-03T17:51:44;2.70;;;1.00;;
23555;SDS011;11956;53.184;8.578;2023-04-03T17:54:45;4.30;;;1.25;;
23555;SDS011;11956;53.184;8.578;2023-04-03T17:57:46;4.70;;;1.10;;
23555;SDS011;11956;53.184;8.578;2023-04-03T18:00:47;3.83;;;1.20;;
23555;SDS011;11956;53.184;8.578;2023-04-03T18:03:48;3.40;;;1.20;;
23555;SDS011;11956;53.184;8.578;2023-04-03T18:06:53;4.30;;;1.10;;
23555;SDS011;11956;53.184;8.578;2023-04-03T18:09:55;6.20;;;1.70;;
23555;SDS011;11956;53.184;8.578;2023-04-03T18:12:57;3.08;;;1.40;;
23555;SDS011;11956;53.184;8.578;2023-04-03T18:15:58;4.93;;;1.55;;
23555;SDS011;11956;53.184;8.578;2023-04-03T18:18:58;4.13;;;1.30;;
23555;SDS011;11956;53.184;8.578;2023-04-03T18:22:01;3.22;;;1.20;;
23555;SDS011;11956;53.184;8.578;2023-04-03T18:25:08;4.15;;;1.80;;
23555;SDS011;11956;53.184;8.578;2023-04-03T18:28:10;6.07;;;2.10;;
23555;SDS011;11956;53.184;8.578;2023-04-03T18:31:12;4.43;;;1.80;;
23555;SDS011;11956;53.184;8.578;2023-04-03T18:34:15;4.20;;;2.13;;
23555;SDS011;11956;53.184;8.578;2023-04-03T18:37:16;4.45;;;2.00;;
23555;SDS011;11956;53.184;8.578;2023-04-03T18:40:18;5.43;;;2.40;;
23555;SDS011;11956;53.184;8.578;2023-04-03T18:43:19;4.78;;;2.58;;
23555;SDS011;11956;53.184;8.578;2023-04-03T18:46:20;4.07;;;1.63;;
23555;SDS011;11956;53.184;8.578;2023-04-03T18:49:21;3.85;;;1.60;;
23555;SDS011;11956;53.184;8.578;2023-04-03T18:52:21;2.97;;;1.90;;
23555;SDS011;11956;53.184;8.578;2023-04-03T18:55:24;4.80;;;1.70;;
23555;SDS011;11956;53.184;8.578;2023-04-03T18:58:25;4.68;;;1.60;;
23555;SDS011;11956;53.184;8.578;2023-04-03T19:01:26;5.10;;;1.80;;
23555;SDS011;11956;53.184;8.578;2023-04-03T19:04:27;3.47;;;1.40;;
23555;SDS011;11956;53.184;8.578;2023-04-03T19:07:28;4.13;;;1.60;;
23555;SDS011;11956;53.184;8.578;2023-04-03T19:10:30;4.30;;;1.90;;
23555;SDS011;11956;53.184;8.578;2023-04-03T19:13:31;4.38;;;1.52;;
23555;SDS011;11956;53.184;8.578;2023-04-03T19:16:32;5.13;;;2.10;;
23555;SDS011;11956;53.184;8.578;2023-04-03T19:19:33;5.18;;;1.58;;
23555;SDS011;11956;53.184;8.578;2023-04-03T19:22:34;4.47;;;1.67;;
23555;SDS011;11956;53.184;8.578;2023-04-03T19:25:35;5.32;;;1.80;;
23555;SDS011;11956;53.184;8.578;2023-04-03T19:28:37;3.78;;;1.58;;
23555;SDS011;11956;53.184;8.578;2023-04-03T19:31:40;3.30;;;1.83;;
23555;SDS011;11956;53.184;8.578;2023-04-03T19:34:42;4.40;;;2.00;;
23555;SDS011;11956;53.184;8.578;2023-04-03T19:37:44;5.82;;;1.85;;
23555;SDS011;11956;53.184;8.578;2023-04-03T19:40:50;4.47;;;1.67;;
23555;SDS011;11956;53.184;8.578;2023-04-03T19:43:51;4.57;;;1.75;;